sensor_id;sensor_type;location;lat;lon;timestamp;temperature;humidity
3542;DHT22;1785;47.388;8.538;2022-09-09T00:02:08;20.30;99.90
3542;DHT22;1785;47.388;8.538;2022-09-09T00:04:41;20.00;99.90
3542;DHT22;1785;47.388;8.538;2022-09-09T00:07:15;19.90;99.90
3542;DHT22;1785;47.388;8.538;2022-09-09T00:09:48;19.70;99.90
3542;DHT22;1785;47.388;8.538;2022-09-09T00:12:25;19.80;99.90
3542;DHT22;1785;47.388;8.538;2022-09-09T00:14:56;19.80;99.90
3542;DHT22;1785;47.388;8.538;2022-09-09T00:17:35;20.00;99.90
3542;DHT22;1785;47.388;8.538;2022-09-09T00:20:12;20.10;99.90
3542;DHT22;1785;47.388;8.538;2022-09-09T00:22:42;19.80;99.90
3542;DHT22;1785;47.388;8.538;2022-09-09T00:25:15;19.60;99.90
3542;DHT22;1785;47.388;8.538;2022-09-09T00:27:45;19.40;99.90
3542;DHT22;1785;47.388;8.538;2022-09-09T00:30:17;19.40;99.90
3542;DHT22;1785;47.388;8.538;2022-09-09T00:32:47;19.70;99.90
3542;DHT22;1785;47.388;8.538;2022-09-09T00:35:21;19.90;99.90
3542;DHT22;1785;47.388;8.538;2022-09-09T00:37:51;19.70;99.90
3542;DHT22;1785;47.388;8.538;2022-09-09T00:40:23;19.50;99.90
3542;DHT22;1785;47.388;8.538;2022-09-09T00:43:01;19.40;99.90
3542;DHT22;1785;47.388;8.538;2022-09-09T00:46:00;19.30;99.90
3542;DHT22;1785;47.388;8.538;2022-09-09T00:48:37;19.10;99.90
3542;DHT22;1785;47.388;8.538;2022-09-09T00:51:14;18.80;99.90
3542;DHT22;1785;47.388;8.538;2022-09-09T00:54:04;18.90;99.90
3542;DHT22;1785;47.388;8.538;2022-09-09T00:56:36;19.00;99.90
3542;DHT22;1785;47.388;8.538;2022-09-09T00:59:18;19.30;99.90
3542;DHT22;1785;47.388;8.538;2022-09-09T01:01:50;19.30;99.90
3542;DHT22;1785;47.388;8.538;2022-09-09T01:04:23;19.30;99.90
3542;DHT22;1785;47.388;8.538;2022-09-09T01:06:55;19.40;99.90
3542;DHT22;1785;47.388;8.538;2022-09-09T01:09:29;19.20;99.90
3542;DHT22;1785;47.388;8.538;2022-09-09T01:12:01;19.30;99.90
3542;DHT22;1785;47.388;8.538;2022-09-09T01:14:38;19.40;99.90
3542;DHT22;1785;47.388;8.538;2022-09-09T01:17:11;19.40;99.90
3542;DHT22;1785;47.388;8.538;2022-09-09T01:19:52;19.30;99.90
3542;DHT22;1785;47.388;8.538;2022-09-09T01:22:28;19.30;99.90
3542;DHT22;1785;47.388;8.538;2022-09-09T01:25:22;19.50;99.90
3542;DHT22;1785;47.388;8.538;2022-09-09T01:27:55;19.50;99.90
3542;DHT22;1785;47.388;8.538;2022-09-09T01:30:22;19.00;99.90
3542;DHT22;1785;47.388;8.538;2022-09-09T01:32:51;18.80;99.90
3542;DHT22;1785;47.388;8.538;2022-09-09T01:35:33;18.80;99.90
3542;DHT22;1785;47.388;8.538;2022-09-09T01:38:01;18.80;99.90
3542;DHT22;1785;47.388;8.538;2022-09-09T01:40:27;18.90;99.90
3542;DHT22;1785;47.388;8.538;2022-09-09T01:42:54;19.10;99.90
3542;DHT22;1785;47.388;8.538;2022-09-09T01:45:21;19.30;99.90
3542;DHT22;1785;47.388;8.538;2022-09-09T01:47:48;19.60;99.90
3542;DHT22;1785;47.388;8.538;2022-09-09T01:50:16;19.70;99.90
3542;DHT22;1785;47.388;8.538;2022-09-09T01:52:44;19.80;99.90
3542;DHT22;1785;47.388;8.538;2022-09-09T01:55:12;19.30;99.90
3542;DHT22;1785;47.388;8.538;2022-09-09T01:57:43;19.00;99.90
3542;DHT22;1785;47.388;8.538;2022-09-09T02:00:14;19.00;99.90
3542;DHT22;1785;47.388;8.538;2022-09-09T02:02:49;19.00;99.90
3542;DHT22;1785;47.388;8.538;2022-09-09T02:05:27;19.20;99.90
3542;DHT22;1785;47.388;8.538;2022-09-09T02:08:03;19.30;99.90
3542;DHT22;1785;47.388;8.538;2022-09-09T02:10:36;19.30;99.90
3542;DHT22;1785;47.388;8.538;2022-09-09T02:13:07;19.50;99.90
3542;DHT22;1785;47.388;8.538;2022-09-09T02:15:40;19.60;99.90
3542;DHT22;1785;47.388;8.538;2022-09-09T02:18:10;19.80;99.90
3542;DHT22;1785;47.388;8.538;2022-09-09T02:20:38;19.80;99.90
3542;DHT22;1785;47.388;8.538;2022-09-09T02:23:05;19.90;99.90
3542;DHT22;1785;47.388;8.538;2022-09-09T02:25:34;19.90;99.90
3542;DHT22;1785;47.388;8.538;2022-09-09T02:28:04;19.50;99.90
3542;DHT22;1785;47.388;8.538;2022-09-09T02:30:33;19.60;99.90
3542;DHT22;1785;47.388;8.538;2022-09-09T02:33:03;19.60;99.90
3542;DHT22;1785;47.388;8.538;2022-09-09T02:35:32;19.40;99.90
3542;DHT22;1785;47.388;8.538;2022-09-09T02:38:06;19.60;99.90
3542;DHT22;1785;47.388;8.538;2022-09-09T02:40:33;19.50;99.90
3542;DHT22;1785;47.388;8.538;2022-09-09T02:43:00;19.70;99.90
3542;DHT22;1785;47.388;8.538;2022-09-09T02:45:31;19.60;99.90
3542;DHT22;1785;47.388;8.538;2022-09-09T02:48:09;19.30;99.90
3542;DHT22;1785;47.388;8.538;2022-09-09T02:50:43;19.00;99.90
3542;DHT22;1785;47.388;8.538;2022-09-09T02:53:16;19.00;99.90
3542;DHT22;1785;47.388;8.538;2022-09-09T02:55:47;19.00;99.90
3542;DHT22;1785;47.388;8.538;2022-09-09T02:58:16;19.10;99.90
3542;DHT22;1785;47.388;8.538;2022-09-09T03:00:45;19.10;99.90
3542;DHT22;1785;47.388;8.538;2022-09-09T03:03:12;19.30;99.90
3542;DHT22;1785;47.388;8.538;2022-09-09T03:05:39;19.10;99.90
3542;DHT22;1785;47.388;8.538;2022-09-09T03:08:06;18.90;99.90
3542;DHT22;1785;47.388;8.538;2022-09-09T03:10:32;18.80;99.90
3542;DHT22;1785;47.388;8.538;2022-09-09T03:12:59;19.20;99.90
3542;DHT22;1785;47.388;8.538;2022-09-09T03:15:25;19.60;99.90
3542;DHT22;1785;47.388;8.538;2022-09-09T03:17:54;19.80;99.90
3542;DHT22;1785;47.388;8.538;2022-09-09T03:20:23;19.70;99.90
3542;DHT22;1785;47.388;8.538;2022-09-09T03:22:49;19.50;99.90
3542;DHT22;1785;47.388;8.538;2022-09-09T03:25:15;19.70;99.90
3542;DHT22;1785;47.388;8.538;2022-09-09T03:27:41;19.60;99.90
3542;DHT22;1785;47.388;8.538;2022-09-09T03:30:08;19.60;99.90
3542;DHT22;1785;47.388;8.538;2022-09-09T03:32:36;19.80;99.90
3542;DHT22;1785;47.388;8.538;2022-09-09T03:35:02;19.20;99.90
3542;DHT22;1785;47.388;8.538;2022-09-09T03:37:29;19.30;99.90
3542;DHT22;1785;47.388;8.538;2022-09-09T03:39:57;19.60;99.90
3542;DHT22;1785;47.388;8.538;2022-09-09T03:42:23;19.40;99.90
3542;DHT22;1785;47.388;8.538;2022-09-09T03:44:49;19.10;99.90
3542;DHT22;1785;47.388;8.538;2022-09-09T03:47:17;19.20;99.90
3542;DHT22;1785;47.388;8.538;2022-09-09T03:49:44;19.00;99.90
3542;DHT22;1785;47.388;8.538;2022-09-09T03:52:11;18.90;99.90
3542;DHT22;1785;47.388;8.538;2022-09-09T03:54:38;18.80;99.90
3542;DHT22;1785;47.388;8.538;2022-09-09T03:57:04;18.90;99.90
3542;DHT22;1785;47.388;8.538;2022-09-09T03:59:31;18.80;99.90
3542;DHT22;1785;47.388;8.538;2022-09-09T04:01:58;19.10;99.90
3542;DHT22;1785;47.388;8.538;2022-09-09T04:04:24;19.20;99.90
3542;DHT22;1785;47.388;8.538;2022-09-09T04:06:51;19.40;99.90
3542;DHT22;1785;47.388;8.538;2022-09-09T04:09:17;19.60;99.90
3542;DHT22;1785;47.388;8.538;2022-09-09T04:11:44;19.70;99.90
3542;DHT22;1785;47.388;8.538;2022-09-09T04:14:11;19.70;99.90
3542;DHT22;1785;47.388;8.538;2022-09-09T04:16:38;19.70;99.90
3542;DHT22;1785;47.388;8.538;2022-09-09T04:19:05;19.70;99.90
3542;DHT22;1785;47.388;8.538;2022-09-09T04:21:33;19.90;99.90
3542;DHT22;1785;47.388;8.538;2022-09-09T04:23:59;20.00;99.90
3542;DHT22;1785;47.388;8.538;2022-09-09T04:26:26;19.80;99.90
3542;DHT22;1785;47.388;8.538;2022-09-09T04:28:52;19.80;99.90
3542;DHT22;1785;47.388;8.538;2022-09-09T04:31:20;19.60;99.90
3542;DHT22;1785;47.388;8.538;2022-09-09T04:33:49;19.60;99.90
3542;DHT22;1785;47.388;8.538;2022-09-09T04:36:15;19.70;99.90
3542;DHT22;1785;47.388;8.538;2022-09-09T04:38:41;19.80;99.90
3542;DHT22;1785;47.388;8.538;2022-09-09T04:41:10;19.80;99.90
3542;DHT22;1785;47.388;8.538;2022-09-09T04:43:37;19.90;99.90
3542;DHT22;1785;47.388;8.538;2022-09-09T04:46:05;19.90;99.90
3542;DHT22;1785;47.388;8.538;2022-09-09T04:48:32;19.90;99.90
3542;DHT22;1785;47.388;8.538;2022-09-09T04:51:00;19.70;99.90
3542;DHT22;1785;47.388;8.538;2022-09-09T04:53:27;19.60;99.90
3542;DHT22;1785;47.388;8.538;2022-09-09T04:56:01;19.50;99.90
3542;DHT22;1785;47.388;8.538;2022-09-09T04:58:28;19.60;99.90
3542;DHT22;1785;47.388;8.538;2022-09-09T05:00:54;19.90;99.90
3542;DHT22;1785;47.388;8.538;2022-09-09T05:03:22;20.00;99.90
3542;DHT22;1785;47.388;8.538;2022-09-09T05:05:49;19.90;99.90
3542;DHT22;1785;47.388;8.538;2022-09-09T05:08:15;19.90;99.90
3542;DHT22;1785;47.388;8.538;2022-09-09T05:10:41;19.80;99.90
3542;DHT22;1785;47.388;8.538;2022-09-09T05:13:08;19.60;99.90
3542;DHT22;1785;47.388;8.538;2022-09-09T05:15:34;19.60;99.90
3542;DHT22;1785;47.388;8.538;2022-09-09T05:18:02;19.40;99.90
3542;DHT22;1785;47.388;8.538;2022-09-09T05:20:29;19.20;99.90
3542;DHT22;1785;47.388;8.538;2022-09-09T05:22:56;19.20;99.90
3542;DHT22;1785;47.388;8.538;2022-09-09T05:25:24;19.30;99.90
3542;DHT22;1785;47.388;8.538;2022-09-09T05:27:51;19.40;99.90
3542;DHT22;1785;47.388;8.538;2022-09-09T05:30:19;19.50;99.90
3542;DHT22;1785;47.388;8.538;2022-09-09T05:32:45;19.50;99.90
3542;DHT22;1785;47.388;8.538;2022-09-09T05:35:13;19.60;99.90
3542;DHT22;1785;47.388;8.538;2022-09-09T05:37:44;19.60;99.90
3542;DHT22;1785;47.388;8.538;2022-09-09T05:40:12;19.60;99.90
3542;DHT22;1785;47.388;8.538;2022-09-09T05:42:39;19.50;99.90
3542;DHT22;1785;47.388;8.538;2022-09-09T05:45:06;19.60;99.90
3542;DHT22;1785;47.388;8.538;2022-09-09T05:47:33;19.80;99.90
3542;DHT22;1785;47.388;8.538;2022-09-09T05:50:00;19.80;99.90
3542;DHT22;1785;47.388;8.538;2022-09-09T05:52:26;19.80;99.90
3542;DHT22;1785;47.388;8.538;2022-09-09T05:54:53;19.70;99.90
3542;DHT22;1785;47.388;8.538;2022-09-09T05:57:20;19.70;99.90
3542;DHT22;1785;47.388;8.538;2022-09-09T05:59:47;19.60;99.90
3542;DHT22;1785;47.388;8.538;2022-09-09T06:02:15;19.60;99.90
3542;DHT22;1785;47.388;8.538;2022-09-09T06:04:42;19.70;99.90
3542;DHT22;1785;47.388;8.538;2022-09-09T06:07:09;19.60;99.90
3542;DHT22;1785;47.388;8.538;2022-09-09T06:09:35;19.40;99.90
3542;DHT22;1785;47.388;8.538;2022-09-09T06:12:02;19.40;99.90
3542;DHT22;1785;47.388;8.538;2022-09-09T06:14:29;19.40;99.90
3542;DHT22;1785;47.388;8.538;2022-09-09T06:16:56;19.50;99.90
3542;DHT22;1785;47.388;8.538;2022-09-09T06:19:22;19.80;99.90
3542;DHT22;1785;47.388;8.538;2022-09-09T06:21:50;20.10;99.90
3542;DHT22;1785;47.388;8.538;2022-09-09T06:24:16;20.20;99.90
3542;DHT22;1785;47.388;8.538;2022-09-09T06:26:45;20.40;99.90
3542;DHT22;1785;47.388;8.538;2022-09-09T06:29:12;20.60;99.90
3542;DHT22;1785;47.388;8.538;2022-09-09T06:31:39;20.80;99.90
3542;DHT22;1785;47.388;8.538;2022-09-09T06:34:07;21.00;99.90
3542;DHT22;1785;47.388;8.538;2022-09-09T06:36:35;21.00;99.90
3542;DHT22;1785;47.388;8.538;2022-09-09T06:39:03;21.10;99.90
3542;DHT22;1785;47.388;8.538;2022-09-09T06:41:31;21.20;99.90
3542;DHT22;1785;47.388;8.538;2022-09-09T06:43:58;21.10;99.90
3542;DHT22;1785;47.388;8.538;2022-09-09T06:46:26;21.00;99.90
3542;DHT22;1785;47.388;8.538;2022-09-09T06:48:54;20.90;99.90
3542;DHT22;1785;47.388;8.538;2022-09-09T06:51:23;20.90;99.90
3542;DHT22;1785;47.388;8.538;2022-09-09T06:53:51;20.80;99.90
3542;DHT22;1785;47.388;8.538;2022-09-09T06:56:20;21.10;99.90
3542;DHT22;1785;47.388;8.538;2022-09-09T06:58:47;21.00;99.90
3542;DHT22;1785;47.388;8.538;2022-09-09T07:01:15;20.90;99.90
3542;DHT22;1785;47.388;8.538;2022-09-09T07:03:46;20.90;99.90
3542;DHT22;1785;47.388;8.538;2022-09-09T07:06:15;20.90;99.90
3542;DHT22;1785;47.388;8.538;2022-09-09T07:08:43;20.90;99.90
3542;DHT22;1785;47.388;8.538;2022-09-09T07:11:09;21.10;99.90
3542;DHT22;1785;47.388;8.538;2022-09-09T07:13:37;21.20;99.90
3542;DHT22;1785;47.388;8.538;2022-09-09T07:16:04;21.20;99.90
3542;DHT22;1785;47.388;8.538;2022-09-09T07:18:31;21.20;99.90
3542;DHT22;1785;47.388;8.538;2022-09-09T07:20:59;20.80;99.90
3542;DHT22;1785;47.388;8.538;2022-09-09T07:23:26;20.70;99.90
3542;DHT22;1785;47.388;8.538;2022-09-09T07:25:52;20.80;99.90
3542;DHT22;1785;47.388;8.538;2022-09-09T07:28:18;20.70;99.90
3542;DHT22;1785;47.388;8.538;2022-09-09T07:30:53;20.40;99.90
3542;DHT22;1785;47.388;8.538;2022-09-09T07:33:20;20.20;99.90
3542;DHT22;1785;47.388;8.538;2022-09-09T07:35:46;20.10;99.90
3542;DHT22;1785;47.388;8.538;2022-09-09T07:38:13;20.10;99.90
3542;DHT22;1785;47.388;8.538;2022-09-09T07:40:40;20.10;99.90
3542;DHT22;1785;47.388;8.538;2022-09-09T07:43:07;19.90;99.90
3542;DHT22;1785;47.388;8.538;2022-09-09T07:45:34;20.10;99.90
3542;DHT22;1785;47.388;8.538;2022-09-09T07:48:01;20.10;99.90
3542;DHT22;1785;47.388;8.538;2022-09-09T07:50:27;20.10;99.90
3542;DHT22;1785;47.388;8.538;2022-09-09T07:52:54;20.20;99.90
3542;DHT22;1785;47.388;8.538;2022-09-09T07:55:21;20.50;99.90
3542;DHT22;1785;47.388;8.538;2022-09-09T07:57:51;20.50;99.90
3542;DHT22;1785;47.388;8.538;2022-09-09T08:00:18;20.40;99.90
3542;DHT22;1785;47.388;8.538;2022-09-09T08:02:45;20.30;99.90
3542;DHT22;1785;47.388;8.538;2022-09-09T08:05:12;20.30;99.90
3542;DHT22;1785;47.388;8.538;2022-09-09T08:07:38;20.20;99.90
3542;DHT22;1785;47.388;8.538;2022-09-09T08:10:05;20.20;99.90
3542;DHT22;1785;47.388;8.538;2022-09-09T08:12:32;20.00;99.90
3542;DHT22;1785;47.388;8.538;2022-09-09T08:14:59;20.10;99.90
3542;DHT22;1785;47.388;8.538;2022-09-09T08:17:25;20.40;99.90
3542;DHT22;1785;47.388;8.538;2022-09-09T08:19:52;20.50;99.90
3542;DHT22;1785;47.388;8.538;2022-09-09T08:22:19;20.40;99.90
3542;DHT22;1785;47.388;8.538;2022-09-09T08:24:46;20.20;99.90
3542;DHT22;1785;47.388;8.538;2022-09-09T08:27:13;20.20;99.90
3542;DHT22;1785;47.388;8.538;2022-09-09T08:29:40;20.10;99.90
3542;DHT22;1785;47.388;8.538;2022-09-09T08:32:06;20.00;99.90
3542;DHT22;1785;47.388;8.538;2022-09-09T08:34:33;20.10;99.90
3542;DHT22;1785;47.388;8.538;2022-09-09T08:37:00;20.10;99.90
3542;DHT22;1785;47.388;8.538;2022-09-09T08:39:26;20.20;99.90
3542;DHT22;1785;47.388;8.538;2022-09-09T08:42:08;20.10;99.90
3542;DHT22;1785;47.388;8.538;2022-09-09T08:44:57;20.30;99.90
3542;DHT22;1785;47.388;8.538;2022-09-09T08:47:33;20.00;99.90
3542;DHT22;1785;47.388;8.538;2022-09-09T08:50:16;19.80;99.90
3542;DHT22;1785;47.388;8.538;2022-09-09T08:52:51;19.90;99.90
3542;DHT22;1785;47.388;8.538;2022-09-09T08:55:25;20.20;99.90
3542;DHT22;1785;47.388;8.538;2022-09-09T08:57:55;20.10;99.90
3542;DHT22;1785;47.388;8.538;2022-09-09T09:00:31;19.90;99.90
3542;DHT22;1785;47.388;8.538;2022-09-09T09:03:06;20.00;99.90
3542;DHT22;1785;47.388;8.538;2022-09-09T09:05:41;20.10;99.90
3542;DHT22;1785;47.388;8.538;2022-09-09T09:08:16;20.10;99.90
3542;DHT22;1785;47.388;8.538;2022-09-09T09:10:46;20.30;99.90
3542;DHT22;1785;47.388;8.538;2022-09-09T09:13:15;20.40;99.90
3542;DHT22;1785;47.388;8.538;2022-09-09T09:15:44;20.50;99.90
3542;DHT22;1785;47.388;8.538;2022-09-09T09:18:13;20.30;99.90
3542;DHT22;1785;47.388;8.538;2022-09-09T09:20:50;20.40;99.90
3542;DHT22;1785;47.388;8.538;2022-09-09T09:23:22;20.20;99.90
3542;DHT22;1785;47.388;8.538;2022-09-09T09:25:48;20.30;99.90
3542;DHT22;1785;47.388;8.538;2022-09-09T09:28:18;20.30;99.90
3542;DHT22;1785;47.388;8.538;2022-09-09T09:30:53;20.20;99.90
3542;DHT22;1785;47.388;8.538;2022-09-09T09:33:22;20.20;99.90
3542;DHT22;1785;47.388;8.538;2022-09-09T09:35:50;20.10;99.90
3542;DHT22;1785;47.388;8.538;2022-09-09T09:38:18;19.90;99.90
3542;DHT22;1785;47.388;8.538;2022-09-09T09:40:49;19.90;99.90
3542;DHT22;1785;47.388;8.538;2022-09-09T09:43:21;20.20;99.90
3542;DHT22;1785;47.388;8.538;2022-09-09T09:45:48;20.30;99.90
3542;DHT22;1785;47.388;8.538;2022-09-09T09:48:15;20.10;99.90
3542;DHT22;1785;47.388;8.538;2022-09-09T09:50:48;20.10;99.90
3542;DHT22;1785;47.388;8.538;2022-09-09T09:53:22;20.10;99.90
3542;DHT22;1785;47.388;8.538;2022-09-09T09:55:55;20.10;99.90
3542;DHT22;1785;47.388;8.538;2022-09-09T09:58:23;20.10;99.90
3542;DHT22;1785;47.388;8.538;2022-09-09T10:00:53;20.40;99.90
3542;DHT22;1785;47.388;8.538;2022-09-09T10:03:25;20.50;99.90
3542;DHT22;1785;47.388;8.538;2022-09-09T10:05:52;20.60;99.90
3542;DHT22;1785;47.388;8.538;2022-09-09T10:08:19;20.60;99.90
3542;DHT22;1785;47.388;8.538;2022-09-09T10:11:01;20.70;99.90
3542;DHT22;1785;47.388;8.538;2022-09-09T10:13:34;20.80;99.90
3542;DHT22;1785;47.388;8.538;2022-09-09T10:16:16;20.90;99.90
3542;DHT22;1785;47.388;8.538;2022-09-09T10:18:52;20.70;99.90
3542;DHT22;1785;47.388;8.538;2022-09-09T10:21:33;20.80;99.90
3542;DHT22;1785;47.388;8.538;2022-09-09T10:24:19;21.10;99.90
3542;DHT22;1785;47.388;8.538;2022-09-09T10:26:54;21.30;99.90
3542;DHT22;1785;47.388;8.538;2022-09-09T10:29:46;21.70;99.90
3542;DHT22;1785;47.388;8.538;2022-09-09T10:32:35;21.50;99.90
3542;DHT22;1785;47.388;8.538;2022-09-09T10:35:09;21.30;99.90
3542;DHT22;1785;47.388;8.538;2022-09-09T10:37:48;21.10;99.90
3542;DHT22;1785;47.388;8.538;2022-09-09T10:40:25;21.00;99.90
3542;DHT22;1785;47.388;8.538;2022-09-09T10:42:56;20.70;99.90
3542;DHT22;1785;47.388;8.538;2022-09-09T10:45:32;20.50;99.90
3542;DHT22;1785;47.388;8.538;2022-09-09T10:48:25;20.50;99.90
3542;DHT22;1785;47.388;8.538;2022-09-09T10:51:02;20.10;99.90
3542;DHT22;1785;47.388;8.538;2022-09-09T10:53:41;20.10;99.90
3542;DHT22;1785;47.388;8.538;2022-09-09T10:56:15;20.30;99.90
3542;DHT22;1785;47.388;8.538;2022-09-09T10:58:46;20.40;99.90
3542;DHT22;1785;47.388;8.538;2022-09-09T11:01:18;20.60;99.90
3542;DHT22;1785;47.388;8.538;2022-09-09T11:03:54;20.70;99.90
3542;DHT22;1785;47.388;8.538;2022-09-09T11:06:24;20.80;99.90
3542;DHT22;1785;47.388;8.538;2022-09-09T11:08:52;20.80;99.90
3542;DHT22;1785;47.388;8.538;2022-09-09T11:11:22;20.90;99.90
3542;DHT22;1785;47.388;8.538;2022-09-09T11:13:57;21.10;99.90
3542;DHT22;1785;47.388;8.538;2022-09-09T11:16:28;21.40;99.90
3542;DHT22;1785;47.388;8.538;2022-09-09T11:19:00;21.20;99.90
3542;DHT22;1785;47.388;8.538;2022-09-09T11:21:32;21.20;99.90
3542;DHT22;1785;47.388;8.538;2022-09-09T11:24:04;21.30;99.90
3542;DHT22;1785;47.388;8.538;2022-09-09T11:26:38;21.20;99.90
3542;DHT22;1785;47.388;8.538;2022-09-09T11:29:33;20.90;99.90
3542;DHT22;1785;47.388;8.538;2022-09-09T11:32:13;21.10;99.90
3542;DHT22;1785;47.388;8.538;2022-09-09T11:34:52;21.40;99.90
3542;DHT22;1785;47.388;8.538;2022-09-09T11:37:44;21.80;99.90
3542;DHT22;1785;47.388;8.538;2022-09-09T11:40:19;22.10;99.90
3542;DHT22;1785;47.388;8.538;2022-09-09T11:42:47;22.30;99.90
3542;DHT22;1785;47.388;8.538;2022-09-09T11:45:23;22.40;99.90
3542;DHT22;1785;47.388;8.538;2022-09-09T11:47:53;22.00;99.90
3542;DHT22;1785;47.388;8.538;2022-09-09T11:50:38;22.00;99.90
3542;DHT22;1785;47.388;8.538;2022-09-09T11:53:23;21.50;99.90
3542;DHT22;1785;47.388;8.538;2022-09-09T11:56:08;21.50;99.90
3542;DHT22;1785;47.388;8.538;2022-09-09T11:58:38;21.70;99.90
3542;DHT22;1785;47.388;8.538;2022-09-09T12:01:27;21.60;99.90
3542;DHT22;1785;47.388;8.538;2022-09-09T12:04:02;21.80;99.90
3542;DHT22;1785;47.388;8.538;2022-09-09T12:06:41;21.60;99.90
3542;DHT22;1785;47.388;8.538;2022-09-09T12:09:19;21.60;99.90
3542;DHT22;1785;47.388;8.538;2022-09-09T12:11:48;21.60;99.90
3542;DHT22;1785;47.388;8.538;2022-09-09T12:14:23;21.40;99.90
3542;DHT22;1785;47.388;8.538;2022-09-09T12:17:10;21.70;99.90
3542;DHT22;1785;47.388;8.538;2022-09-09T12:19:36;22.10;99.90
3542;DHT22;1785;47.388;8.538;2022-09-09T12:22:07;22.40;99.90
3542;DHT22;1785;47.388;8.538;2022-09-09T12:24:43;22.60;99.90
3542;DHT22;1785;47.388;8.538;2022-09-09T12:27:16;22.80;99.90
3542;DHT22;1785;47.388;8.538;2022-09-09T12:29:49;22.50;99.90
3542;DHT22;1785;47.388;8.538;2022-09-09T12:32:23;22.70;99.90
3542;DHT22;1785;47.388;8.538;2022-09-09T12:34:52;22.70;99.90
3542;DHT22;1785;47.388;8.538;2022-09-09T12:37:26;22.80;99.90
3542;DHT22;1785;47.388;8.538;2022-09-09T12:39:55;23.00;99.90
3542;DHT22;1785;47.388;8.538;2022-09-09T12:42:23;23.00;99.90
3542;DHT22;1785;47.388;8.538;2022-09-09T12:44:54;22.90;99.90
3542;DHT22;1785;47.388;8.538;2022-09-09T12:47:23;23.20;99.90
3542;DHT22;1785;47.388;8.538;2022-09-09T12:49:51;23.60;99.90
3542;DHT22;1785;47.388;8.538;2022-09-09T12:52:22;23.40;99.90
3542;DHT22;1785;47.388;8.538;2022-09-09T12:54:50;23.40;99.70
3542;DHT22;1785;47.388;8.538;2022-09-09T12:57:17;23.00;99.30
3542;DHT22;1785;47.388;8.538;2022-09-09T12:59:44;23.00;99.30
3542;DHT22;1785;47.388;8.538;2022-09-09T13:02:18;23.10;99.00
3542;DHT22;1785;47.388;8.538;2022-09-09T13:04:44;23.00;97.20
3542;DHT22;1785;47.388;8.538;2022-09-09T13:07:12;23.10;97.30
3542;DHT22;1785;47.388;8.538;2022-09-09T13:09:40;23.30;97.60
3542;DHT22;1785;47.388;8.538;2022-09-09T13:12:10;23.40;99.60
3542;DHT22;1785;47.388;8.538;2022-09-09T13:14:38;23.70;99.40
3542;DHT22;1785;47.388;8.538;2022-09-09T13:17:06;23.90;99.90
3542;DHT22;1785;47.388;8.538;2022-09-09T13:19:44;23.80;99.80
3542;DHT22;1785;47.388;8.538;2022-09-09T13:22:12;23.80;96.40
3542;DHT22;1785;47.388;8.538;2022-09-09T13:24:39;23.80;95.90
3542;DHT22;1785;47.388;8.538;2022-09-09T13:27:28;24.00;96.60
3542;DHT22;1785;47.388;8.538;2022-09-09T13:29:55;24.20;96.00
3542;DHT22;1785;47.388;8.538;2022-09-09T13:32:24;24.10;94.80
3542;DHT22;1785;47.388;8.538;2022-09-09T13:34:53;24.10;94.10
3542;DHT22;1785;47.388;8.538;2022-09-09T13:37:23;24.10;92.10
3542;DHT22;1785;47.388;8.538;2022-09-09T13:39:53;24.30;91.50
3542;DHT22;1785;47.388;8.538;2022-09-09T13:42:24;24.10;91.20
3542;DHT22;1785;47.388;8.538;2022-09-09T13:44:51;24.00;93.70
3542;DHT22;1785;47.388;8.538;2022-09-09T13:47:19;24.10;93.50
3542;DHT22;1785;47.388;8.538;2022-09-09T13:49:46;24.20;92.60
3542;DHT22;1785;47.388;8.538;2022-09-09T13:52:14;24.20;92.20
3542;DHT22;1785;47.388;8.538;2022-09-09T13:54:43;23.80;92.80
3542;DHT22;1785;47.388;8.538;2022-09-09T13:57:16;23.90;92.80
3542;DHT22;1785;47.388;8.538;2022-09-09T13:59:44;24.00;93.00
3542;DHT22;1785;47.388;8.538;2022-09-09T14:02:10;23.90;92.40
3542;DHT22;1785;47.388;8.538;2022-09-09T14:04:37;24.00;92.60
3542;DHT22;1785;47.388;8.538;2022-09-09T14:07:03;24.10;92.00
3542;DHT22;1785;47.388;8.538;2022-09-09T14:09:30;24.10;92.20
3542;DHT22;1785;47.388;8.538;2022-09-09T14:11:56;24.30;92.40
3542;DHT22;1785;47.388;8.538;2022-09-09T14:14:24;24.50;91.90
3542;DHT22;1785;47.388;8.538;2022-09-09T14:16:50;24.80;91.50
3542;DHT22;1785;47.388;8.538;2022-09-09T14:19:17;24.60;91.20
3542;DHT22;1785;47.388;8.538;2022-09-09T14:21:44;24.30;91.20
3542;DHT22;1785;47.388;8.538;2022-09-09T14:24:10;24.20;91.50
3542;DHT22;1785;47.388;8.538;2022-09-09T14:26:38;24.40;91.90
3542;DHT22;1785;47.388;8.538;2022-09-09T14:29:04;24.40;91.60
3542;DHT22;1785;47.388;8.538;2022-09-09T14:31:31;24.30;92.70
3542;DHT22;1785;47.388;8.538;2022-09-09T14:33:58;24.20;95.50
3542;DHT22;1785;47.388;8.538;2022-09-09T14:36:24;24.20;96.60
3542;DHT22;1785;47.388;8.538;2022-09-09T14:38:51;24.00;96.80
3542;DHT22;1785;47.388;8.538;2022-09-09T14:41:19;24.00;97.30
3542;DHT22;1785;47.388;8.538;2022-09-09T14:43:48;23.60;97.80
3542;DHT22;1785;47.388;8.538;2022-09-09T14:46:16;23.90;97.20
3542;DHT22;1785;47.388;8.538;2022-09-09T14:48:44;24.10;97.00
3542;DHT22;1785;47.388;8.538;2022-09-09T14:51:12;24.40;97.20
3542;DHT22;1785;47.388;8.538;2022-09-09T14:53:39;24.50;96.90
3542;DHT22;1785;47.388;8.538;2022-09-09T14:56:07;24.30;97.20
3542;DHT22;1785;47.388;8.538;2022-09-09T14:58:34;24.20;97.00
3542;DHT22;1785;47.388;8.538;2022-09-09T15:01:05;24.50;97.20
3542;DHT22;1785;47.388;8.538;2022-09-09T15:03:31;25.00;96.70
3542;DHT22;1785;47.388;8.538;2022-09-09T15:06:04;24.70;95.60
3542;DHT22;1785;47.388;8.538;2022-09-09T15:08:31;24.80;95.90
3542;DHT22;1785;47.388;8.538;2022-09-09T15:10:59;24.60;96.00
3542;DHT22;1785;47.388;8.538;2022-09-09T15:13:26;24.60;96.50
3542;DHT22;1785;47.388;8.538;2022-09-09T15:15:53;24.80;96.40
3542;DHT22;1785;47.388;8.538;2022-09-09T15:18:19;25.00;96.00
3542;DHT22;1785;47.388;8.538;2022-09-09T15:20:46;25.10;96.20
3542;DHT22;1785;47.388;8.538;2022-09-09T15:23:14;24.60;96.30
3542;DHT22;1785;47.388;8.538;2022-09-09T15:25:50;24.60;96.70
3542;DHT22;1785;47.388;8.538;2022-09-09T15:28:17;24.40;97.00
3542;DHT22;1785;47.388;8.538;2022-09-09T15:30:43;24.10;96.90
3542;DHT22;1785;47.388;8.538;2022-09-09T15:33:12;24.10;97.30
3542;DHT22;1785;47.388;8.538;2022-09-09T15:35:39;24.30;97.60
3542;DHT22;1785;47.388;8.538;2022-09-09T15:38:05;24.50;97.40
3542;DHT22;1785;47.388;8.538;2022-09-09T15:40:32;24.70;97.50
3542;DHT22;1785;47.388;8.538;2022-09-09T15:42:58;24.90;97.30
3542;DHT22;1785;47.388;8.538;2022-09-09T15:45:25;24.70;97.90
3542;DHT22;1785;47.388;8.538;2022-09-09T15:47:52;24.70;98.00
3542;DHT22;1785;47.388;8.538;2022-09-09T15:50:19;25.00;98.10
3542;DHT22;1785;47.388;8.538;2022-09-09T15:52:45;25.50;97.40
3542;DHT22;1785;47.388;8.538;2022-09-09T15:55:11;25.50;96.40
3542;DHT22;1785;47.388;8.538;2022-09-09T15:57:38;25.60;96.60
3542;DHT22;1785;47.388;8.538;2022-09-09T16:00:06;26.00;97.00
3542;DHT22;1785;47.388;8.538;2022-09-09T16:02:32;25.80;94.70
3542;DHT22;1785;47.388;8.538;2022-09-09T16:04:59;25.30;93.80
3542;DHT22;1785;47.388;8.538;2022-09-09T16:07:26;25.00;93.50
3542;DHT22;1785;47.388;8.538;2022-09-09T16:09:53;25.00;92.10
3542;DHT22;1785;47.388;8.538;2022-09-09T16:12:19;24.40;91.70
3542;DHT22;1785;47.388;8.538;2022-09-09T16:14:47;24.40;91.00
3542;DHT22;1785;47.388;8.538;2022-09-09T16:17:13;24.20;91.40
3542;DHT22;1785;47.388;8.538;2022-09-09T16:19:40;24.60;91.90
3542;DHT22;1785;47.388;8.538;2022-09-09T16:22:07;24.80;91.70